sensor_id;sensor_type;location;lat;lon;timestamp;P1;durP1;ratioP1;P2;durP2;ratioP2
27003;SDS011;14546;47.590;19.022;2022-08-07T00:01:47;5.07;;;1.90;;
27003;SDS011;14546;47.590;19.022;2022-08-07T00:04:13;2.63;;;2.28;;
27003;SDS011;14546;47.590;19.022;2022-08-07T00:06:40;3.65;;;2.10;;
27003;SDS011;14546;47.590;19.022;2022-08-07T00:09:07;5.93;;;2.65;;
27003;SDS011;14546;47.590;19.022;2022-08-07T00:11:33;3.03;;;2.38;;
27003;SDS011;14546;47.590;19.022;2022-08-07T00:14:00;6.20;;;2.30;;
27003;SDS011;14546;47.590;19.022;2022-08-07T00:16:27;2.85;;;2.08;;
27003;SDS011;14546;47.590;19.022;2022-08-07T00:18:54;3.70;;;2.10;;
27003;SDS011;14546;47.590;19.022;2022-08-07T00:21:21;2.97;;;2.20;;
27003;SDS011;14546;47.590;19.022;2022-08-07T00:23:47;4.03;;;2.25;;
27003;SDS011;14546;47.590;19.022;2022-08-07T00:26:14;3.28;;;2.40;;
27003;SDS011;14546;47.590;19.022;2022-08-07T00:28:41;2.20;;;2.00;;
27003;SDS011;14546;47.590;19.022;2022-08-07T00:31:08;3.13;;;2.60;;
27003;SDS011;14546;47.590;19.022;2022-08-07T00:33:35;2.10;;;2.00;;
27003;SDS011;14546;47.590;19.022;2022-08-07T00:36:02;3.15;;;2.00;;
27003;SDS011;14546;47.590;19.022;2022-08-07T00:38:28;2.72;;;2.25;;
27003;SDS011;14546;47.590;19.022;2022-08-07T00:40:55;2.53;;;2.10;;
27003;SDS011;14546;47.590;19.022;2022-08-07T00:43:22;2.22;;;2.03;;
27003;SDS011;14546;47.590;19.022;2022-08-07T00:45:48;3.55;;;2.50;;
27003;SDS011;14546;47.590;19.022;2022-08-07T00:48:14;2.45;;;2.25;;
27003;SDS011;14546;47.590;19.022;2022-08-07T00:50:41;2.83;;;2.63;;
27003;SDS011;14546;47.590;19.022;2022-08-07T00:53:08;2.72;;;2.33;;
27003;SDS011;14546;47.590;19.022;2022-08-07T00:55:34;2.50;;;2.30;;
27003;SDS011;14546;47.590;19.022;2022-08-07T00:58:01;2.85;;;2.55;;
27003;SDS011;14546;47.590;19.022;2022-08-07T01:00:27;2.50;;;2.30;;
27003;SDS011;14546;47.590;19.022;2022-08-07T01:02:53;2.47;;;2.28;;
27003;SDS011;14546;47.590;19.022;2022-08-07T01:05:19;2.88;;;2.60;;
27003;SDS011;14546;47.590;19.022;2022-08-07T01:07:45;3.15;;;2.58;;
27003;SDS011;14546;47.590;19.022;2022-08-07T01:10:11;2.88;;;2.60;;
27003;SDS011;14546;47.590;19.022;2022-08-07T01:12:39;2.83;;;2.55;;
27003;SDS011;14546;47.590;19.022;2022-08-07T01:15:05;6.88;;;2.58;;
27003;SDS011;14546;47.590;19.022;2022-08-07T01:17:32;2.65;;;2.40;;
27003;SDS011;14546;47.590;19.022;2022-08-07T01:20:09;3.15;;;2.70;;
27003;SDS011;14546;47.590;19.022;2022-08-07T01:22:36;3.22;;;2.83;;
27003;SDS011;14546;47.590;19.022;2022-08-07T01:25:02;2.30;;;2.15;;
27003;SDS011;14546;47.590;19.022;2022-08-07T01:27:29;3.00;;;2.72;;
27003;SDS011;14546;47.590;19.022;2022-08-07T01:29:55;12.00;;;2.80;;
27003;SDS011;14546;47.590;19.022;2022-08-07T01:32:21;3.58;;;2.80;;
27003;SDS011;14546;47.590;19.022;2022-08-07T01:34:47;2.78;;;2.58;;
27003;SDS011;14546;47.590;19.022;2022-08-07T01:37:14;3.20;;;2.83;;
27003;SDS011;14546;47.590;19.022;2022-08-07T01:39:42;2.95;;;2.67;;
27003;SDS011;14546;47.590;19.022;2022-08-07T01:42:08;3.13;;;2.63;;
27003;SDS011;14546;47.590;19.022;2022-08-07T01:44:34;4.70;;;2.92;;
27003;SDS011;14546;47.590;19.022;2022-08-07T01:47:00;2.85;;;2.65;;
27003;SDS011;14546;47.590;19.022;2022-08-07T01:49:26;3.35;;;3.05;;
27003;SDS011;14546;47.590;19.022;2022-08-07T01:51:52;2.92;;;2.60;;
27003;SDS011;14546;47.590;19.022;2022-08-07T01:54:19;4.60;;;2.88;;
27003;SDS011;14546;47.590;19.022;2022-08-07T01:56:58;4.53;;;2.90;;
27003;SDS011;14546;47.590;19.022;2022-08-07T01:59:32;6.57;;;3.58;;
27003;SDS011;14546;47.590;19.022;2022-08-07T02:02:00;4.15;;;3.10;;
27003;SDS011;14546;47.590;19.022;2022-08-07T02:04:29;4.68;;;3.00;;
27003;SDS011;14546;47.590;19.022;2022-08-07T02:06:57;3.33;;;3.00;;
27003;SDS011;14546;47.590;19.022;2022-08-07T02:09:25;3.88;;;2.67;;
27003;SDS011;14546;47.590;19.022;2022-08-07T02:11:52;4.68;;;2.90;;
27003;SDS011;14546;47.590;19.022;2022-08-07T02:14:20;3.10;;;2.90;;
27003;SDS011;14546;47.590;19.022;2022-08-07T02:16:47;3.42;;;3.13;;
27003;SDS011;14546;47.590;19.022;2022-08-07T02:19:14;3.10;;;2.80;;
27003;SDS011;14546;47.590;19.022;2022-08-07T02:21:41;3.35;;;3.05;;
27003;SDS011;14546;47.590;19.022;2022-08-07T02:24:07;6.32;;;3.33;;
27003;SDS011;14546;47.590;19.022;2022-08-07T02:26:34;3.95;;;3.00;;
27003;SDS011;14546;47.590;19.022;2022-08-07T02:29:02;5.78;;;3.05;;
27003;SDS011;14546;47.590;19.022;2022-08-07T02:31:29;3.28;;;2.83;;
27003;SDS011;14546;47.590;19.022;2022-08-07T02:33:56;8.35;;;3.42;;
27003;SDS011;14546;47.590;19.022;2022-08-07T02:36:23;5.57;;;2.90;;
27003;SDS011;14546;47.590;19.022;2022-08-07T02:38:50;6.25;;;3.10;;
27003;SDS011;14546;47.590;19.022;2022-08-07T02:41:16;6.68;;;3.00;;
27003;SDS011;14546;47.590;19.022;2022-08-07T02:43:43;5.18;;;3.15;;
27003;SDS011;14546;47.590;19.022;2022-08-07T02:46:09;7.72;;;3.40;;
27003;SDS011;14546;47.590;19.022;2022-08-07T02:48:36;3.38;;;3.08;;
27003;SDS011;14546;47.590;19.022;2022-08-07T02:51:06;3.22;;;2.92;;
27003;SDS011;14546;47.590;19.022;2022-08-07T02:53:33;4.88;;;2.97;;
27003;SDS011;14546;47.590;19.022;2022-08-07T02:56:00;4.13;;;2.90;;
27003;SDS011;14546;47.590;19.022;2022-08-07T02:58:28;5.53;;;3.00;;
27003;SDS011;14546;47.590;19.022;2022-08-07T03:00:56;3.90;;;3.28;;
27003;SDS011;14546;47.590;19.022;2022-08-07T03:03:23;3.33;;;3.03;;
27003;SDS011;14546;47.590;19.022;2022-08-07T03:05:52;7.00;;;3.75;;
27003;SDS011;14546;47.590;19.022;2022-08-07T03:08:19;4.70;;;3.42;;
27003;SDS011;14546;47.590;19.022;2022-08-07T03:10:47;7.72;;;3.80;;
27003;SDS011;14546;47.590;19.022;2022-08-07T03:13:14;3.90;;;3.30;;
27003;SDS011;14546;47.590;19.022;2022-08-07T03:15:40;4.97;;;3.40;;
27003;SDS011;14546;47.590;19.022;2022-08-07T03:18:07;4.25;;;3.58;;
27003;SDS011;14546;47.590;19.022;2022-08-07T03:20:35;7.35;;;3.53;;
27003;SDS011;14546;47.590;19.022;2022-08-07T03:23:04;4.55;;;3.70;;
27003;SDS011;14546;47.590;19.022;2022-08-07T03:25:31;4.38;;;3.70;;
27003;SDS011;14546;47.590;19.022;2022-08-07T03:27:58;4.43;;;3.50;;
27003;SDS011;14546;47.590;19.022;2022-08-07T03:30:25;4.32;;;3.67;;
27003;SDS011;14546;47.590;19.022;2022-08-07T03:32:52;4.90;;;3.50;;
27003;SDS011;14546;47.590;19.022;2022-08-07T03:35:22;5.25;;;3.70;;
27003;SDS011;14546;47.590;19.022;2022-08-07T03:37:52;6.43;;;3.95;;
27003;SDS011;14546;47.590;19.022;2022-08-07T03:40:18;3.92;;;3.53;;
27003;SDS011;14546;47.590;19.022;2022-08-07T03:42:45;4.57;;;3.72;;
27003;SDS011;14546;47.590;19.022;2022-08-07T03:45:11;4.40;;;3.75;;
27003;SDS011;14546;47.590;19.022;2022-08-07T03:47:38;6.63;;;3.90;;
27003;SDS011;14546;47.590;19.022;2022-08-07T03:50:04;6.95;;;3.63;;
27003;SDS011;14546;47.590;19.022;2022-08-07T03:52:31;4.18;;;3.33;;
27003;SDS011;14546;47.590;19.022;2022-08-07T03:54:59;4.43;;;3.55;;
27003;SDS011;14546;47.590;19.022;2022-08-07T03:57:26;6.05;;;3.95;;
27003;SDS011;14546;47.590;19.022;2022-08-07T03:59:53;5.50;;;3.88;;
27003;SDS011;14546;47.590;19.022;2022-08-07T04:02:21;5.72;;;3.10;;
27003;SDS011;14546;47.590;19.022;2022-08-07T04:04:49;5.22;;;3.58;;
27003;SDS011;14546;47.590;19.022;2022-08-07T04:07:21;3.63;;;3.13;;
27003;SDS011;14546;47.590;19.022;2022-08-07T04:09:49;4.73;;;3.40;;
27003;SDS011;14546;47.590;19.022;2022-08-07T04:12:15;5.00;;;3.47;;
27003;SDS011;14546;47.590;19.022;2022-08-07T04:14:42;4.22;;;3.63;;
27003;SDS011;14546;47.590;19.022;2022-08-07T04:17:09;3.63;;;3.22;;
27003;SDS011;14546;47.590;19.022;2022-08-07T04:19:40;4.10;;;3.42;;
27003;SDS011;14546;47.590;19.022;2022-08-07T04:22:06;5.88;;;3.30;;
27003;SDS011;14546;47.590;19.022;2022-08-07T04:24:33;4.07;;;3.08;;
27003;SDS011;14546;47.590;19.022;2022-08-07T04:27:02;4.57;;;3.17;;
27003;SDS011;14546;47.590;19.022;2022-08-07T04:29:29;4.05;;;3.17;;
27003;SDS011;14546;47.590;19.022;2022-08-07T04:31:56;3.50;;;2.75;;
27003;SDS011;14546;47.590;19.022;2022-08-07T04:34:23;9.10;;;3.00;;
27003;SDS011;14546;47.590;19.022;2022-08-07T04:36:50;6.38;;;2.92;;
27003;SDS011;14546;47.590;19.022;2022-08-07T04:39:17;3.42;;;3.13;;
27003;SDS011;14546;47.590;19.022;2022-08-07T04:41:43;3.35;;;3.05;;
27003;SDS011;14546;47.590;19.022;2022-08-07T04:44:09;3.40;;;2.65;;
27003;SDS011;14546;47.590;19.022;2022-08-07T04:52:02;6.22;;;2.97;;
27003;SDS011;14546;47.590;19.022;2022-08-07T05:02:34;3.75;;;1.20;;
27003;SDS011;14546;47.590;19.022;2022-08-07T05:05:12;0.95;;;0.95;;
27003;SDS011;14546;47.590;19.022;2022-08-07T05:07:57;3.75;;;1.08;;
27003;SDS011;14546;47.590;19.022;2022-08-07T05:10:57;9.50;;;1.63;;
27003;SDS011;14546;47.590;19.022;2022-08-07T05:13:36;1.73;;;0.90;;
27003;SDS011;14546;47.590;19.022;2022-08-07T05:16:12;1.23;;;1.10;;
27003;SDS011;14546;47.590;19.022;2022-08-07T05:18:50;3.40;;;1.17;;
27003;SDS011;14546;47.590;19.022;2022-08-07T05:21:22;2.13;;;0.93;;
27003;SDS011;14546;47.590;19.022;2022-08-07T05:23:59;1.20;;;1.10;;
27003;SDS011;14546;47.590;19.022;2022-08-07T05:26:28;1.45;;;1.00;;
27003;SDS011;14546;47.590;19.022;2022-08-07T05:28:58;5.00;;;1.17;;
27003;SDS011;14546;47.590;19.022;2022-08-07T05:31:28;1.25;;;1.00;;
27003;SDS011;14546;47.590;19.022;2022-08-07T05:33:58;8.93;;;1.60;;
27003;SDS011;14546;47.590;19.022;2022-08-07T05:36:26;10.35;;;1.70;;
27003;SDS011;14546;47.590;19.022;2022-08-07T05:38:53;5.25;;;1.30;;
27003;SDS011;14546;47.590;19.022;2022-08-07T05:41:20;3.40;;;1.08;;
27003;SDS011;14546;47.590;19.022;2022-08-07T05:43:48;3.65;;;1.40;;
27003;SDS011;14546;47.590;19.022;2022-08-07T05:46:15;2.08;;;1.00;;
27003;SDS011;14546;47.590;19.022;2022-08-07T05:48:44;1.17;;;1.08;;
27003;SDS011;14546;47.590;19.022;2022-08-07T05:51:10;8.07;;;1.00;;
27003;SDS011;14546;47.590;19.022;2022-08-07T05:53:38;1.80;;;0.93;;
27003;SDS011;14546;47.590;19.022;2022-08-07T05:56:04;9.20;;;1.15;;
27003;SDS011;14546;47.590;19.022;2022-08-07T05:58:32;2.67;;;0.90;;
27003;SDS011;14546;47.590;19.022;2022-08-07T06:01:00;0.95;;;0.88;;
27003;SDS011;14546;47.590;19.022;2022-08-07T06:03:28;1.25;;;0.90;;
27003;SDS011;14546;47.590;19.022;2022-08-07T06:05:56;6.07;;;1.10;;
27003;SDS011;14546;47.590;19.022;2022-08-07T06:08:24;2.35;;;0.80;;
27003;SDS011;14546;47.590;19.022;2022-08-07T06:10:50;1.08;;;0.82;;
27003;SDS011;14546;47.590;19.022;2022-08-07T06:13:17;5.97;;;1.88;;
27003;SDS011;14546;47.590;19.022;2022-08-07T06:15:43;2.30;;;0.90;;
27003;SDS011;14546;47.590;19.022;2022-08-07T06:18:12;1.00;;;0.80;;
27003;SDS011;14546;47.590;19.022;2022-08-07T06:20:40;1.67;;;1.00;;
27003;SDS011;14546;47.590;19.022;2022-08-07T06:23:09;6.82;;;1.50;;
27003;SDS011;14546;47.590;19.022;2022-08-07T06:25:36;1.75;;;0.90;;
27003;SDS011;14546;47.590;19.022;2022-08-07T06:28:09;3.10;;;1.30;;
27003;SDS011;14546;47.590;19.022;2022-08-07T06:30:36;4.32;;;1.02;;
27003;SDS011;14546;47.590;19.022;2022-08-07T06:33:05;1.40;;;0.80;;
27003;SDS011;14546;47.590;19.022;2022-08-07T06:35:35;1.92;;;1.10;;
27003;SDS011;14546;47.590;19.022;2022-08-07T06:38:02;1.80;;;1.00;;
27003;SDS011;14546;47.590;19.022;2022-08-07T06:40:30;1.25;;;0.95;;
27003;SDS011;14546;47.590;19.022;2022-08-07T06:43:05;1.23;;;0.98;;
27003;SDS011;14546;47.590;19.022;2022-08-07T06:45:34;1.13;;;0.95;;
27003;SDS011;14546;47.590;19.022;2022-08-07T06:48:00;4.00;;;1.08;;
27003;SDS011;14546;47.590;19.022;2022-08-07T06:50:27;1.95;;;0.90;;
27003;SDS011;14546;47.590;19.022;2022-08-07T06:52:57;1.27;;;0.80;;
27003;SDS011;14546;47.590;19.022;2022-08-07T06:55:25;3.30;;;0.90;;
27003;SDS011;14546;47.590;19.022;2022-08-07T06:57:56;5.43;;;0.93;;
27003;SDS011;14546;47.590;19.022;2022-08-07T07:00:30;3.33;;;0.80;;
27003;SDS011;14546;47.590;19.022;2022-08-07T07:02:59;1.33;;;1.08;;
27003;SDS011;14546;47.590;19.022;2022-08-07T07:05:26;1.52;;;0.88;;
27003;SDS011;14546;47.590;19.022;2022-08-07T07:07:53;1.27;;;0.90;;
27003;SDS011;14546;47.590;19.022;2022-08-07T07:10:26;2.30;;;0.93;;
27003;SDS011;14546;47.590;19.022;2022-08-07T07:13:00;3.05;;;0.95;;
27003;SDS011;14546;47.590;19.022;2022-08-07T07:15:49;3.45;;;1.15;;
27003;SDS011;14546;47.590;19.022;2022-08-07T07:18:27;3.58;;;1.00;;
27003;SDS011;14546;47.590;19.022;2022-08-07T07:21:28;3.33;;;1.00;;
27003;SDS011;14546;47.590;19.022;2022-08-07T07:23:59;2.38;;;1.02;;
27003;SDS011;14546;47.590;19.022;2022-08-07T07:26:26;4.03;;;1.00;;
27003;SDS011;14546;47.590;19.022;2022-08-07T07:28:58;3.10;;;0.90;;
27003;SDS011;14546;47.590;19.022;2022-08-07T07:31:38;2.50;;;1.02;;
27003;SDS011;14546;47.590;19.022;2022-08-07T07:34:12;1.88;;;1.00;;
27003;SDS011;14546;47.590;19.022;2022-08-07T07:36:41;0.80;;;0.80;;
27003;SDS011;14546;47.590;19.022;2022-08-07T07:39:09;1.00;;;0.90;;
27003;SDS011;14546;47.590;19.022;2022-08-07T07:41:37;3.30;;;1.00;;
27003;SDS011;14546;47.590;19.022;2022-08-07T07:44:08;2.28;;;0.90;;
27003;SDS011;14546;47.590;19.022;2022-08-07T07:46:36;2.75;;;0.85;;
27003;SDS011;14546;47.590;19.022;2022-08-07T07:49:06;1.13;;;0.80;;
27003;SDS011;14546;47.590;19.022;2022-08-07T07:51:34;2.58;;;0.90;;
27003;SDS011;14546;47.590;19.022;2022-08-07T07:54:00;0.93;;;0.93;;
27003;SDS011;14546;47.590;19.022;2022-08-07T07:56:27;2.22;;;1.00;;
27003;SDS011;14546;47.590;19.022;2022-08-07T07:59:01;3.10;;;1.10;;
27003;SDS011;14546;47.590;19.022;2022-08-07T08:01:30;1.20;;;0.80;;
27003;SDS011;14546;47.590;19.022;2022-08-07T08:03:59;1.52;;;0.85;;
27003;SDS011;14546;47.590;19.022;2022-08-07T08:06:28;3.60;;;1.05;;
27003;SDS011;14546;47.590;19.022;2022-08-07T08:08:55;1.25;;;1.00;;
27003;SDS011;14546;47.590;19.022;2022-08-07T08:11:24;4.80;;;1.00;;
27003;SDS011;14546;47.590;19.022;2022-08-07T08:13:50;1.00;;;0.90;;
27003;SDS011;14546;47.590;19.022;2022-08-07T08:16:19;1.88;;;1.00;;
27003;SDS011;14546;47.590;19.022;2022-08-07T08:19:13;2.70;;;1.00;;
27003;SDS011;14546;47.590;19.022;2022-08-07T08:21:41;2.25;;;0.90;;
27003;SDS011;14546;47.590;19.022;2022-08-07T08:24:37;0.98;;;0.80;;
27003;SDS011;14546;47.590;19.022;2022-08-07T08:27:25;3.92;;;0.70;;
27003;SDS011;14546;47.590;19.022;2022-08-07T08:30:05;3.15;;;0.82;;
27003;SDS011;14546;47.590;19.022;2022-08-07T08:32:47;1.05;;;0.95;;
27003;SDS011;14546;47.590;19.022;2022-08-07T08:35:23;3.15;;;0.98;;
27003;SDS011;14546;47.590;19.022;2022-08-07T08:37:55;2.38;;;0.95;;
27003;SDS011;14546;47.590;19.022;2022-08-07T08:40:29;3.63;;;0.82;;
27003;SDS011;14546;47.590;19.022;2022-08-07T08:43:58;2.10;;;0.90;;
27003;SDS011;14546;47.590;19.022;2022-08-07T08:45:52;2.15;;;1.10;;
27003;SDS011;14546;47.590;19.022;2022-08-07T08:48:26;1.23;;;0.93;;
27003;SDS011;14546;47.590;19.022;2022-08-07T08:50:59;1.55;;;0.90;;
27003;SDS011;14546;47.590;19.022;2022-08-07T08:53:45;3.28;;;1.65;;
27003;SDS011;14546;47.590;19.022;2022-08-07T08:56:46;1.90;;;1.10;;
27003;SDS011;14546;47.590;19.022;2022-08-07T09:07:18;1.63;;;1.20;;
27003;SDS011;14546;47.590;19.022;2022-08-07T09:17:37;3.90;;;1.40;;
27003;SDS011;14546;47.590;19.022;2022-08-07T09:25:38;3.13;;;1.13;;
27003;SDS011;14546;47.590;19.022;2022-08-07T09:28:09;1.58;;;1.20;;
27003;SDS011;14546;47.590;19.022;2022-08-07T09:33:14;1.42;;;1.20;;
27003;SDS011;14546;47.590;19.022;2022-08-07T09:35:54;2.78;;;1.10;;
27003;SDS011;14546;47.590;19.022;2022-08-07T09:41:19;1.85;;;1.10;;
27003;SDS011;14546;47.590;19.022;2022-08-07T09:43:52;1.42;;;0.98;;
27003;SDS011;14546;47.590;19.022;2022-08-07T09:49:08;7.05;;;1.42;;
27003;SDS011;14546;47.590;19.022;2022-08-07T09:51:59;5.13;;;1.30;;
27003;SDS011;14546;47.590;19.022;2022-08-07T10:10:09;3.90;;;1.40;;
27003;SDS011;14546;47.590;19.022;2022-08-07T10:18:23;2.00;;;1.10;;
27003;SDS011;14546;47.590;19.022;2022-08-07T10:39:02;4.03;;;1.23;;
27003;SDS011;14546;47.590;19.022;2022-08-07T10:41:41;2.88;;;1.20;;
27003;SDS011;14546;47.590;19.022;2022-08-07T10:44:17;2.38;;;1.30;;
27003;SDS011;14546;47.590;19.022;2022-08-07T10:46:53;3.55;;;1.30;;
27003;SDS011;14546;47.590;19.022;2022-08-07T10:49:21;3.25;;;1.52;;
27003;SDS011;14546;47.590;19.022;2022-08-07T10:54:20;2.05;;;1.13;;
27003;SDS011;14546;47.590;19.022;2022-08-07T10:57:02;4.97;;;1.50;;
27003;SDS011;14546;47.590;19.022;2022-08-07T10:59:40;3.47;;;1.40;;
27003;SDS011;14546;47.590;19.022;2022-08-07T11:02:17;2.67;;;1.20;;
27003;SDS011;14546;47.590;19.022;2022-08-07T11:07:30;1.98;;;1.30;;
27003;SDS011;14546;47.590;19.022;2022-08-07T11:10:02;2.55;;;1.00;;
27003;SDS011;14546;47.590;19.022;2022-08-07T11:12:32;2.08;;;1.80;;
27003;SDS011;14546;47.590;19.022;2022-08-07T11:15:02;2.28;;;1.40;;
27003;SDS011;14546;47.590;19.022;2022-08-07T11:19:56;5.57;;;1.60;;
27003;SDS011;14546;47.590;19.022;2022-08-07T11:22:33;3.55;;;1.50;;
27003;SDS011;14546;47.590;19.022;2022-08-07T11:25:23;2.42;;;1.58;;
27003;SDS011;14546;47.590;19.022;2022-08-07T11:27:56;1.40;;;1.30;;
27003;SDS011;14546;47.590;19.022;2022-08-07T11:30:27;2.85;;;1.50;;
27003;SDS011;14546;47.590;19.022;2022-08-07T11:35:45;2.40;;;1.40;;
27003;SDS011;14546;47.590;19.022;2022-08-07T11:38:21;1.70;;;1.40;;
27003;SDS011;14546;47.590;19.022;2022-08-07T11:43:23;2.47;;;1.60;;
27003;SDS011;14546;47.590;19.022;2022-08-07T12:04:26;1.88;;;1.30;;
27003;SDS011;14546;47.590;19.022;2022-08-07T12:06:48;6.25;;;1.77;;
27003;SDS011;14546;47.590;19.022;2022-08-07T12:11:51;1.90;;;1.30;;
27003;SDS011;14546;47.590;19.022;2022-08-07T12:14:19;2.65;;;1.50;;
27003;SDS011;14546;47.590;19.022;2022-08-07T12:19:33;2.47;;;1.20;;
27003;SDS011;14546;47.590;19.022;2022-08-07T12:22:03;2.35;;;1.30;;
27003;SDS011;14546;47.590;19.022;2022-08-07T12:29:31;1.92;;;1.40;;
27003;SDS011;14546;47.590;19.022;2022-08-07T12:32:13;1.40;;;1.30;;
27003;SDS011;14546;47.590;19.022;2022-08-07T12:34:41;3.25;;;1.60;;
27003;SDS011;14546;47.590;19.022;2022-08-07T12:37:07;2.33;;;1.60;;
27003;SDS011;14546;47.590;19.022;2022-08-07T12:39:35;1.88;;;1.38;;
27003;SDS011;14546;47.590;19.022;2022-08-07T12:42:01;3.80;;;1.77;;
27003;SDS011;14546;47.590;19.022;2022-08-07T12:44:29;4.50;;;1.65;;
27003;SDS011;14546;47.590;19.022;2022-08-07T12:52:14;2.97;;;1.60;;
27003;SDS011;14546;47.590;19.022;2022-08-07T12:57:06;1.73;;;1.40;;
27003;SDS011;14546;47.590;19.022;2022-08-07T12:59:32;1.63;;;1.48;;
27003;SDS011;14546;47.590;19.022;2022-08-07T13:02:16;3.15;;;1.50;;
27003;SDS011;14546;47.590;19.022;2022-08-07T13:05:00;5.00;;;1.73;;
27003;SDS011;14546;47.590;19.022;2022-08-07T13:20:05;4.00;;;1.63;;
27003;SDS011;14546;47.590;19.022;2022-08-07T13:22:35;3.45;;;1.83;;
27003;SDS011;14546;47.590;19.022;2022-08-07T13:25:10;2.45;;;1.50;;
27003;SDS011;14546;47.590;19.022;2022-08-07T13:27:40;3.95;;;1.60;;
27003;SDS011;14546;47.590;19.022;2022-08-07T13:30:07;1.95;;;1.58;;
27003;SDS011;14546;47.590;19.022;2022-08-07T13:40:05;3.75;;;1.67;;
27003;SDS011;14546;47.590;19.022;2022-08-07T13:42:35;2.00;;;1.30;;
27003;SDS011;14546;47.590;19.022;2022-08-07T13:45:03;2.13;;;1.58;;
27003;SDS011;14546;47.590;19.022;2022-08-07T13:47:31;3.50;;;1.45;;
27003;SDS011;14546;47.590;19.022;2022-08-07T13:50:00;1.75;;;1.30;;
27003;SDS011;14546;47.590;19.022;2022-08-07T13:52:28;3.20;;;1.40;;
27003;SDS011;14546;47.590;19.022;2022-08-07T13:54:55;2.42;;;1.50;;
27003;SDS011;14546;47.590;19.022;2022-08-07T13:57:26;4.05;;;1.30;;
27003;SDS011;14546;47.590;19.022;2022-08-07T13:59:53;2.70;;;1.50;;
27003;SDS011;14546;47.590;19.022;2022-08-07T14:02:22;2.42;;;1.40;;
27003;SDS011;14546;47.590;19.022;2022-08-07T14:04:59;4.85;;;1.70;;
27003;SDS011;14546;47.590;19.022;2022-08-07T14:07:27;1.80;;;1.50;;
27003;SDS011;14546;47.590;19.022;2022-08-07T14:10:02;4.78;;;1.63;;
27003;SDS011;14546;47.590;19.022;2022-08-07T14:15:04;3.85;;;1.50;;
27003;SDS011;14546;47.590;19.022;2022-08-07T14:17:34;2.10;;;1.40;;
27003;SDS011;14546;47.590;19.022;2022-08-07T14:20:13;2.95;;;1.42;;
27003;SDS011;14546;47.590;19.022;2022-08-07T14:22:42;6.43;;;1.48;;
27003;SDS011;14546;47.590;19.022;2022-08-07T14:25:14;1.70;;;1.60;;
27003;SDS011;14546;47.590;19.022;2022-08-07T14:27:47;2.38;;;1.63;;
27003;SDS011;14546;47.590;19.022;2022-08-07T14:30:16;2.67;;;1.58;;
27003;SDS011;14546;47.590;19.022;2022-08-07T14:32:43;1.60;;;1.42;;
27003;SDS011;14546;47.590;19.022;2022-08-07T14:35:29;2.72;;;1.60;;
27003;SDS011;14546;47.590;19.022;2022-08-07T14:37:56;4.45;;;1.60;;
27003;SDS011;14546;47.590;19.022;2022-08-07T14:40:23;3.25;;;1.77;;
27003;SDS011;14546;47.590;19.022;2022-08-07T14:42:54;3.53;;;1.70;;
27003;SDS011;14546;47.590;19.022;2022-08-07T14:45:22;2.35;;;1.67;;
27003;SDS011;14546;47.590;19.022;2022-08-07T14:47:49;1.83;;;1.67;;
27003;SDS011;14546;47.590;19.022;2022-08-07T14:50:16;2.53;;;1.48;;
27003;SDS011;14546;47.590;19.022;2022-08-07T14:52:44;1.80;;;1.45;;
27003;SDS011;14546;47.590;19.022;2022-08-07T14:55:11;2.30;;;1.60;;
27003;SDS011;14546;47.590;19.022;2022-08-07T14:57:38;1.85;;;1.63;;
27003;SDS011;14546;47.590;19.022;2022-08-07T15:00:06;5.90;;;1.65;;
27003;SDS011;14546;47.590;19.022;2022-08-07T15:02:54;1.67;;;1.58;;
27003;SDS011;14546;47.590;19.022;2022-08-07T15:05:22;2.22;;;1.77;;
27003;SDS011;14546;47.590;19.022;2022-08-07T15:07:49;3.45;;;1.80;;
27003;SDS011;14546;47.590;19.022;2022-08-07T15:10:20;3.75;;;1.70;;
27003;SDS011;14546;47.590;19.022;2022-08-07T15:12:47;2.42;;;1.42;;
27003;SDS011;14546;47.590;19.022;2022-08-07T15:15:14;5.32;;;1.60;;
27003;SDS011;14546;47.590;19.022;2022-08-07T15:17:42;1.85;;;1.27;;
27003;SDS011;14546;47.590;19.022;2022-08-07T15:20:10;5.35;;;1.63;;
27003;SDS011;14546;47.590;19.022;2022-08-07T15:22:44;2.63;;;1.80;;
27003;SDS011;14546;47.590;19.022;2022-08-07T15:25:13;3.75;;;1.75;;
27003;SDS011;14546;47.590;19.022;2022-08-07T15:27:40;3.45;;;2.05;;
27003;SDS011;14546;47.590;19.022;2022-08-07T15:30:07;2.13;;;1.60;;
27003;SDS011;14546;47.590;19.022;2022-08-07T15:32:38;7.07;;;2.35;;
27003;SDS011;14546;47.590;19.022;2022-08-07T15:35:04;10.02;;;2.20;;
27003;SDS011;14546;47.590;19.022;2022-08-07T15:37:32;3.28;;;2.22;;
27003;SDS011;14546;47.590;19.022;2022-08-07T15:39:59;4.32;;;2.08;;
27003;SDS011;14546;47.590;19.022;2022-08-07T15:42:45;4.60;;;1.80;;
27003;SDS011;14546;47.590;19.022;2022-08-07T15:45:57;1.92;;;1.83;;
27003;SDS011;14546;47.590;19.022;2022-08-07T15:48:04;3.03;;;1.83;;
27003;SDS011;14546;47.590;19.022;2022-08-07T15:50:32;2.72;;;1.55;;
27003;SDS011;14546;47.590;19.022;2022-08-07T15:52:59;2.40;;;1.60;;
27003;SDS011;14546;47.590;19.022;2022-08-07T15:55:28;3.90;;;1.70;;
27003;SDS011;14546;47.590;19.022;2022-08-07T15:57:54;2.80;;;1.63;;
27003;SDS011;14546;47.590;19.022;2022-08-07T16:00:22;3.30;;;1.42;;
27003;SDS011;14546;47.590;19.022;2022-08-07T16:02:55;3.47;;;1.60;;
27003;SDS011;14546;47.590;19.022;2022-08-07T16:05:22;2.08;;;1.75;;
27003;SDS011;14546;47.590;19.022;2022-08-07T16:07:50;3.60;;;1.60;;
27003;SDS011;14546;47.590;19.022;2022-08-07T16:10:19;1.88;;;1.40;;
27003;SDS011;14546;47.590;19.022;2022-08-07T16:15:42;2.67;;;2.10;;
27003;SDS011;14546;47.590;19.022;2022-08-07T16:18:15;5.60;;;2.15;;
27003;SDS011;14546;47.590;19.022;2022-08-07T16:20:44;6.13;;;1.50;;
27003;SDS011;14546;47.590;19.022;2022-08-07T16:33:48;3.58;;;1.52;;
27003;SDS011;14546;47.590;19.022;2022-08-07T16:51:49;3.50;;;1.70;;
27003;SDS011;14546;47.590;19.022;2022-08-07T17:11:45;3.92;;;1.60;;
27003;SDS011;14546;47.590;19.022;2022-08-07T17:14:14;4.15;;;1.63;;
27003;SDS011;14546;47.590;19.022;2022-08-07T17:16:43;1.70;;;1.60;;
27003;SDS011;14546;47.590;19.022;2022-08-07T17:22:01;2.65;;;1.45;;
27003;SDS011;14546;47.590;19.022;2022-08-07T17:27:28;2.30;;;1.70;;
27003;SDS011;14546;47.590;19.022;2022-08-07T17:30:06;3.17;;;1.60;;
27003;SDS011;14546;47.590;19.022;2022-08-07T17:32:46;3.17;;;2.22;;
27003;SDS011;14546;47.590;19.022;2022-08-07T17:44:16;4.55;;;1.90;;
27003;SDS011;14546;47.590;19.022;2022-08-07T17:46:49;5.25;;;2.00;;
27003;SDS011;14546;47.590;19.022;2022-08-07T17:49:52;4.20;;;1.60;;
27003;SDS011;14546;47.590;19.022;2022-08-07T17:52:26;2.50;;;1.70;;
27003;SDS011;14546;47.590;19.022;2022-08-07T17:55:34;2.10;;;1.80;;
27003;SDS011;14546;47.590;19.022;2022-08-07T17:58:18;2.50;;;1.65;;
27003;SDS011;14546;47.590;19.022;2022-08-07T18:01:25;1.90;;;1.70;;
27003;SDS011;14546;47.590;19.022;2022-08-07T18:06:45;5.05;;;2.33;;
27003;SDS011;14546;47.590;19.022;2022-08-07T18:09:19;5.47;;;1.95;;
27003;SDS011;14546;47.590;19.022;2022-08-07T18:14:17;3.47;;;1.88;;
27003;SDS011;14546;47.590;19.022;2022-08-07T18:16:58;3.20;;;1.67;;
27003;SDS011;14546;47.590;19.022;2022-08-07T18:19:39;5.28;;;1.92;;
27003;SDS011;14546;47.590;19.022;2022-08-07T18:22:14;5.45;;;1.83;;
27003;SDS011;14546;47.590;19.022;2022-08-07T18:24:49;8.52;;;2.00;;
27003;SDS011;14546;47.590;19.022;2022-08-07T18:30:04;4.53;;;1.92;;
27003;SDS011;14546;47.590;19.022;2022-08-07T18:35:41;7.32;;;1.90;;
27003;SDS011;14546;47.590;19.022;2022-08-07T18:38:29;8.20;;;2.42;;
27003;SDS011;14546;47.590;19.022;2022-08-07T18:41:24;2.08;;;1.80;;